createdAt,value
2022-08-23T00:01:39.559Z,33.58
2022-08-23T00:04:12.324Z,28.58
2022-08-23T00:06:42.276Z,30.30
2022-08-23T00:09:10.510Z,25.23
2022-08-23T00:11:45.850Z,24.35
2022-08-23T00:14:18.243Z,24.58
2022-08-23T00:16:46.571Z,25.48
2022-08-23T00:19:16.753Z,20.92
2022-08-23T00:21:45.921Z,20.92
2022-08-23T00:24:15.031Z,24.05
2022-08-23T00:26:55.262Z,22.52
2022-08-23T00:29:27.630Z,23.23
2022-08-23T00:31:56.111Z,22.80
2022-08-23T00:34:24.594Z,17.52
2022-08-23T00:36:52.901Z,24.63
2022-08-23T00:39:20.961Z,21.85
2022-08-23T00:41:51.012Z,22.25
2022-08-23T00:44:58.066Z,25.17
2022-08-23T00:47:41.473Z,20.30
2022-08-23T00:50:42.680Z,22.08
2022-08-23T00:53:27.759Z,22.20
2022-08-23T00:56:01.127Z,19.63
2022-08-23T00:58:30.482Z,20.05
2022-08-23T01:01:00.876Z,19.40
2022-08-23T01:03:39.032Z,17.20
2022-08-23T01:06:19.578Z,19.90
2022-08-23T01:08:52.413Z,15.18
2022-08-23T01:11:28.467Z,16.65
2022-08-23T01:14:30.521Z,18.65
2022-08-23T01:17:08.726Z,15.05
2022-08-23T01:19:51.883Z,12.25
2022-08-23T01:22:41.498Z,14.98
2022-08-23T01:25:12.594Z,11.52
2022-08-23T01:27:44.817Z,14.73
2022-08-23T01:30:22.566Z,13.27
2022-08-23T01:32:54.746Z,12.50
2022-08-23T01:35:31.386Z,12.05
2022-08-23T01:37:59.430Z,11.65
2022-08-23T01:40:28.040Z,12.90
2022-08-23T01:42:55.945Z,12.02
2022-08-23T01:45:23.708Z,11.32
2022-08-23T01:47:52.280Z,15.48
2022-08-23T01:50:21.189Z,22.80
2022-08-23T01:52:49.157Z,12.77
2022-08-23T01:55:20.474Z,13.45
2022-08-23T01:57:53.502Z,11.13
2022-08-23T02:00:26.130Z,16.60
2022-08-23T02:02:55.227Z,19.42
2022-08-23T02:07:28.727Z,12.52
2022-08-23T02:09:57.655Z,15.85
2022-08-23T02:12:25.661Z,9.77
2022-08-23T02:15:01.138Z,8.85
2022-08-23T02:17:29.350Z,8.02
2022-08-23T02:19:57.588Z,9.70
2022-08-23T02:22:28.205Z,8.77
2022-08-23T02:27:23.379Z,11.50
2022-08-23T02:29:51.666Z,9.88
2022-08-23T02:32:21.379Z,8.75
2022-08-23T02:34:51.308Z,10.20
2022-08-23T02:37:33.327Z,8.43
2022-08-23T02:40:01.117Z,9.40
2022-08-23T02:42:29.756Z,11.98
2022-08-23T02:44:57.313Z,10.98
2022-08-23T02:47:24.991Z,9.15
2022-08-23T02:50:08.839Z,11.73
2022-08-23T02:52:36.641Z,9.93
2022-08-23T02:55:05.683Z,9.75
2022-08-23T02:57:33.532Z,9.88
2022-08-23T03:00:05.408Z,9.13
2022-08-23T03:02:33.417Z,12.68
2022-08-23T03:05:01.561Z,7.45
2022-08-23T03:07:31.222Z,10.15
2022-08-23T03:09:59.827Z,9.10
2022-08-23T03:12:28.957Z,8.63
2022-08-23T03:14:57.431Z,7.57
2022-08-23T03:17:25.411Z,7.72
2022-08-23T03:19:53.249Z,8.45
2022-08-23T03:22:23.469Z,8.68
2022-08-23T03:24:52.549Z,7.47
2022-08-23T03:27:21.416Z,8.57
2022-08-23T03:29:49.284Z,8.85
2022-08-23T03:32:18.137Z,8.32
2022-08-23T03:34:46.785Z,12.35
2022-08-23T03:37:14.960Z,7.65
2022-08-23T03:39:42.988Z,10.23
2022-08-23T03:42:12.026Z,9.73
2022-08-23T03:44:39.913Z,9.35
2022-08-23T03:47:08.440Z,10.40
2022-08-23T03:49:37.392Z,8.80
2022-08-23T03:52:06.815Z,13.60
2022-08-23T03:54:35.865Z,10.50
2022-08-23T03:57:07.363Z,9.35
2022-08-23T03:59:37.906Z,10.98
2022-08-23T04:02:09.444Z,7.85
2022-08-23T04:04:37.296Z,10.35
2022-08-23T04:07:24.199Z,20.13
2022-08-23T04:09:57.459Z,8.77
2022-08-23T04:12:28.846Z,7.40
2022-08-23T04:14:56.580Z,9.55
2022-08-23T04:17:25.143Z,13.90
2022-08-23T04:19:54.137Z,23.42
2022-08-23T04:24:49.775Z,33.30
2022-08-23T04:27:18.119Z,32.50
2022-08-23T04:29:47.233Z,37.30
2022-08-23T04:32:26.633Z,39.40
2022-08-23T04:34:58.396Z,31.05
2022-08-23T04:37:26.597Z,32.63
2022-08-23T04:40:12.966Z,31.50
2022-08-23T04:42:43.324Z,40.67
2022-08-23T04:45:12.408Z,33.83
2022-08-23T04:47:45.424Z,34.72
2022-08-23T04:50:13.246Z,34.80
2022-08-23T04:52:59.680Z,31.27
2022-08-23T04:55:30.208Z,55.00
2022-08-23T04:58:06.472Z,48.33
2022-08-23T05:00:41.843Z,44.25
2022-08-23T05:03:10.619Z,45.92
2022-08-23T05:05:39.216Z,40.00
2022-08-23T05:08:07.204Z,38.53
2022-08-23T05:10:35.223Z,38.97
2022-08-23T05:13:03.177Z,37.05
2022-08-23T05:15:31.123Z,32.88
2022-08-23T05:18:04.665Z,32.75
2022-08-23T05:20:34.722Z,30.88
2022-08-23T05:23:02.983Z,29.40
2022-08-23T05:25:52.391Z,25.10
2022-08-23T05:28:45.005Z,24.73
2022-08-23T05:31:24.763Z,24.25
2022-08-23T05:33:55.903Z,21.55
2022-08-23T05:36:56.097Z,24.52
2022-08-23T05:39:36.007Z,26.65
2022-08-23T05:42:08.048Z,23.07
2022-08-23T05:44:37.603Z,23.50
2022-08-23T05:47:10.787Z,19.15
2022-08-23T05:49:46.836Z,17.50
2022-08-23T05:54:44.371Z,19.65
2022-08-23T06:00:18.389Z,16.08
2022-08-23T06:02:55.185Z,15.35
2022-08-23T06:05:23.377Z,18.42
2022-08-23T06:07:51.977Z,16.80
2022-08-23T06:10:22.556Z,14.38
2022-08-23T06:13:03.742Z,16.58
2022-08-23T06:15:32.574Z,14.93
2022-08-23T06:18:00.449Z,15.35
2022-08-23T06:23:01.423Z,14.30
2022-08-23T06:25:29.968Z,13.90
2022-08-23T06:28:07.912Z,15.15
2022-08-23T06:30:40.000Z,15.35
2022-08-23T06:33:13.929Z,14.38
2022-08-23T06:35:45.086Z,14.75
2022-08-23T06:38:20.450Z,12.93
2022-08-23T06:41:10.486Z,13.85
2022-08-23T06:44:10.901Z,13.25
2022-08-23T06:47:09.695Z,17.92
2022-08-23T06:49:37.918Z,14.13
2022-08-23T06:52:06.166Z,14.18
2022-08-23T06:54:57.590Z,11.00
2022-08-23T06:57:42.458Z,11.95
2022-08-23T07:00:30.562Z,10.95
2022-08-23T07:03:11.503Z,11.10
2022-08-23T07:05:57.534Z,11.50
2022-08-23T07:08:28.674Z,8.63
2022-08-23T07:10:57.167Z,11.10
2022-08-23T07:13:25.237Z,8.65
2022-08-23T07:15:58.782Z,8.25
2022-08-23T07:18:27.215Z,6.68
2022-08-23T07:21:00.870Z,5.72
2022-08-23T07:23:33.337Z,5.47
2022-08-23T07:26:08.517Z,6.50
2022-08-23T07:28:36.742Z,7.22
2022-08-23T07:31:14.744Z,6.82
2022-08-23T07:33:45.355Z,5.40
2022-08-23T07:36:20.013Z,7.95
2022-08-23T07:38:51.367Z,5.45
2022-08-23T07:41:20.701Z,6.05
2022-08-23T07:43:49.337Z,4.72
2022-08-23T07:49:00.756Z,5.30
2022-08-23T07:51:45.495Z,4.30
2022-08-23T07:54:14.987Z,7.18
2022-08-23T07:56:54.302Z,6.55
2022-08-23T07:59:42.254Z,5.70
2022-08-23T08:02:28.601Z,7.43
2022-08-23T08:04:56.548Z,4.70
2022-08-23T08:07:24.214Z,4.75
2022-08-23T08:09:58.097Z,5.80
2022-08-23T08:12:28.336Z,6.40
2022-08-23T08:14:59.773Z,6.25
2022-08-23T08:17:36.098Z,4.63
2022-08-23T08:20:04.579Z,4.80
2022-08-23T08:22:53.740Z,4.38
2022-08-23T08:26:06.591Z,4.85
2022-08-23T08:28:36.697Z,4.35
2022-08-23T08:31:05.831Z,7.22
2022-08-23T08:33:34.316Z,6.13
2022-08-23T08:36:04.926Z,6.75
2022-08-23T08:38:48.054Z,4.43
2022-08-23T08:41:25.679Z,6.45
2022-08-23T08:44:25.682Z,4.68
2022-08-23T08:46:59.346Z,5.97
2022-08-23T08:49:45.522Z,6.53
2022-08-23T08:52:29.709Z,6.90
2022-08-23T08:55:18.184Z,7.47
2022-08-23T08:57:50.392Z,6.50
2022-08-23T09:00:24.875Z,4.45
2022-08-23T09:02:53.267Z,5.50
2022-08-23T09:05:29.197Z,4.95
2022-08-23T09:08:15.648Z,7.65
2022-08-23T09:11:01.814Z,7.32
2022-08-23T09:13:53.819Z,7.72
2022-08-23T09:16:28.801Z,8.23
2022-08-23T09:18:57.514Z,10.00
2022-08-23T09:21:26.183Z,9.85
2022-08-23T09:24:00.301Z,8.38
2022-08-23T09:26:41.909Z,8.30
2022-08-23T09:29:31.214Z,10.93
2022-08-23T09:32:06.134Z,10.73
2022-08-23T09:34:36.590Z,9.82
2022-08-23T09:37:13.629Z,9.60
2022-08-23T09:39:45.782Z,8.60
2022-08-23T09:42:27.737Z,7.57
2022-08-23T09:44:56.553Z,7.20
2022-08-23T09:47:44.882Z,7.85
2022-08-23T09:50:23.108Z,6.90
2022-08-23T09:52:59.804Z,7.72
2022-08-23T09:55:27.970Z,5.67
2022-08-23T09:57:55.810Z,7.75
2022-08-23T10:00:29.104Z,8.65
2022-08-23T10:03:24.550Z,11.50
2022-08-23T10:06:01.096Z,7.53
2022-08-23T10:08:50.133Z,7.18
2022-08-23T10:11:26.024Z,7.72
2022-08-23T10:13:56.471Z,6.93
2022-08-23T10:17:04.771Z,7.00
2022-08-23T10:19:59.771Z,6.32
2022-08-23T10:22:33.043Z,7.28
2022-08-23T10:25:37.579Z,9.77
2022-08-23T10:28:58.281Z,8.35
2022-08-23T10:32:02.332Z,8.50
2022-08-23T10:34:39.474Z,7.45
2022-08-23T10:37:29.876Z,16.00
2022-08-23T10:40:10.468Z,7.50
2022-08-23T10:42:51.622Z,10.00
2022-08-23T10:45:26.458Z,9.90
2022-08-23T10:48:01.955Z,10.27
2022-08-23T10:50:42.549Z,8.43
2022-08-23T10:53:17.514Z,8.38
2022-08-23T10:56:03.001Z,5.82
2022-08-23T10:58:45.102Z,7.82
2022-08-23T11:01:28.773Z,7.75
2022-08-23T11:04:48.331Z,7.40
2022-08-23T11:07:30.265Z,6.50
2022-08-23T11:10:17.557Z,8.75
2022-08-23T11:12:56.046Z,11.60
2022-08-23T11:15:44.617Z,7.80
2022-08-23T11:18:31.255Z,10.57
2022-08-23T11:23:49.360Z,8.70
2022-08-23T11:26:23.274Z,10.10
2022-08-23T11:28:54.407Z,8.75
2022-08-23T11:31:34.798Z,9.75
2022-08-23T11:34:25.770Z,11.93
2022-08-23T11:37:23.450Z,9.90
2022-08-23T11:40:08.323Z,8.55
2022-08-23T11:42:38.076Z,8.32
2022-08-23T11:45:27.144Z,7.75
2022-08-23T11:48:30.030Z,9.07
2022-08-23T11:51:06.657Z,7.43
2022-08-23T11:53:34.625Z,5.78
2022-08-23T11:56:12.838Z,9.07
2022-08-23T11:59:17.247Z,6.10
2022-08-23T12:01:47.743Z,5.50
2022-08-23T12:04:37.618Z,4.28
2022-08-23T12:07:12.835Z,4.60
2022-08-23T12:09:40.809Z,8.35
2022-08-23T12:12:14.013Z,5.88
2022-08-23T12:14:45.475Z,6.85
2022-08-23T12:17:13.187Z,7.03
2022-08-23T12:19:48.065Z,10.00
2022-08-23T12:22:38.532Z,7.07
2022-08-23T12:25:08.336Z,6.28
2022-08-23T12:27:41.711Z,6.97
2022-08-23T12:30:22.497Z,8.65
2022-08-23T12:33:28.254Z,6.45
2022-08-23T12:36:02.076Z,5.05
2022-08-23T12:38:52.205Z,4.63
2022-08-23T12:41:29.890Z,5.22
2022-08-23T12:44:20.087Z,5.70
2022-08-23T12:46:49.832Z,7.60
2022-08-23T12:49:32.219Z,7.15
2022-08-23T12:52:54.952Z,8.45
2022-08-23T12:55:23.974Z,8.55
2022-08-23T12:57:56.217Z,7.30
2022-08-23T13:00:38.479Z,5.50
2022-08-23T13:03:40.389Z,5.78
2022-08-23T13:06:12.967Z,6.53
2022-08-23T13:08:53.132Z,6.15
2022-08-23T13:11:23.450Z,6.97
2022-08-23T13:13:51.291Z,7.78
2022-08-23T13:16:28.196Z,6.57
2022-08-23T13:19:10.197Z,10.45
2022-08-23T13:21:39.933Z,7.93
2022-08-23T13:24:38.143Z,10.98
2022-08-23T13:27:28.883Z,8.95
2022-08-23T13:30:10.537Z,9.00
2022-08-23T13:32:46.905Z,8.65
2022-08-23T13:35:32.382Z,8.05
2022-08-23T13:38:08.105Z,8.38
2022-08-23T13:40:57.097Z,8.00
2022-08-23T13:43:31.137Z,7.57
2022-08-23T13:46:09.532Z,6.18
2022-08-23T13:48:43.844Z,4.65
2022-08-23T13:51:29.985Z,6.70
2022-08-23T13:54:01.742Z,4.23
2022-08-23T13:56:32.422Z,6.25
2022-08-23T13:59:03.888Z,4.78
2022-08-23T14:01:31.861Z,4.47
2022-08-23T14:03:59.671Z,6.43
2022-08-23T14:06:27.504Z,6.35
2022-08-23T14:08:55.202Z,9.93
2022-08-23T14:11:22.910Z,8.90
2022-08-23T14:13:50.707Z,5.50
2022-08-23T14:16:34.982Z,7.40
2022-08-23T14:21:54.408Z,5.90
2022-08-23T14:24:22.190Z,9.07
2022-08-23T14:26:52.411Z,6.20
2022-08-23T14:29:22.788Z,10.77
2022-08-23T14:31:54.119Z,8.32
2022-08-23T14:34:22.216Z,6.75
2022-08-23T14:39:39.537Z,10.77
2022-08-23T14:42:07.868Z,5.57
2022-08-23T14:44:36.554Z,8.82
2022-08-23T14:47:06.038Z,6.53
2022-08-23T14:49:34.079Z,5.20
2022-08-23T14:52:02.146Z,8.70
2022-08-23T14:54:30.858Z,7.40
2022-08-23T14:56:58.535Z,6.28
2022-08-23T14:59:26.168Z,4.03
2022-08-23T15:04:23.598Z,5.07
2022-08-23T15:07:16.580Z,3.15
2022-08-23T15:09:40.342Z,4.90
2022-08-23T15:14:57.055Z,5.30
2022-08-23T15:17:30.959Z,4.65
2022-08-23T15:19:59.544Z,5.78
2022-08-23T15:22:27.305Z,6.50
2022-08-23T15:24:54.976Z,3.08
2022-08-23T15:27:25.133Z,4.32
2022-08-23T15:29:52.948Z,4.28
2022-08-23T15:32:22.682Z,4.07
2022-08-23T15:34:51.015Z,3.50
2022-08-23T15:37:21.653Z,6.03
2022-08-23T15:39:50.280Z,5.68
2022-08-23T15:42:20.522Z,3.90
2022-08-23T15:44:49.561Z,5.18
2022-08-23T15:47:26.391Z,7.05
2022-08-23T15:49:54.586Z,4.85
2022-08-23T15:52:23.650Z,10.95
2022-08-23T15:54:51.382Z,6.72
2022-08-23T15:57:25.079Z,5.10
2022-08-23T15:59:56.579Z,5.50
2022-08-23T16:02:24.444Z,6.90
2022-08-23T16:04:52.137Z,12.32
2022-08-23T16:09:47.832Z,7.90
2022-08-23T16:12:15.708Z,11.55
2022-08-23T16:14:43.512Z,8.93
2022-08-23T16:19:39.379Z,10.93
2022-08-23T16:22:07.171Z,8.80
2022-08-23T16:24:34.993Z,9.90
2022-08-23T16:27:04.028Z,11.90
2022-08-23T16:29:34.821Z,12.23
2022-08-23T16:32:04.154Z,8.82
2022-08-23T16:34:32.262Z,12.23
2022-08-23T16:37:04.662Z,14.40
2022-08-23T16:39:34.616Z,13.55
2022-08-23T16:42:05.516Z,11.35
2022-08-23T16:44:34.257Z,12.43
2022-08-23T16:47:07.923Z,9.73
2022-08-23T16:49:35.729Z,12.30
2022-08-23T16:52:04.121Z,12.20
2022-08-23T16:54:32.152Z,10.82
2022-08-23T16:57:00.057Z,12.82
2022-08-23T16:59:28.812Z,11.70
2022-08-23T17:02:10.550Z,10.80
2022-08-23T17:04:38.603Z,12.02
2022-08-23T17:09:35.299Z,13.82
2022-08-23T17:14:30.838Z,9.57
2022-08-23T17:17:00.083Z,11.02
2022-08-23T17:19:27.778Z,13.05
2022-08-23T17:21:55.594Z,9.60
2022-08-23T17:24:24.455Z,15.07
2022-08-23T17:26:52.275Z,15.93
2022-08-23T17:31:48.363Z,14.30
2022-08-23T17:34:16.221Z,11.07
2022-08-23T17:39:18.269Z,11.55
2022-08-23T17:41:46.252Z,13.05
2022-08-23T17:44:14.716Z,10.80
2022-08-23T17:46:44.837Z,10.00
2022-08-23T17:49:15.253Z,13.65
2022-08-23T17:51:44.262Z,9.60
2022-08-23T17:54:16.020Z,12.05
2022-08-23T17:56:49.840Z,9.68
2022-08-23T17:59:22.098Z,9.95
2022-08-23T18:01:49.780Z,11.00
2022-08-23T18:04:18.127Z,9.23
2022-08-23T18:06:45.957Z,11.35
2022-08-23T18:11:42.040Z,11.20
2022-08-23T18:14:10.691Z,10.07
2022-08-23T18:16:38.899Z,10.82
2022-08-23T18:19:09.437Z,13.40
2022-08-23T18:21:41.378Z,11.15
2022-08-23T18:24:09.992Z,12.55
2022-08-23T18:26:56.866Z,13.48
2022-08-23T18:29:24.839Z,10.27
2022-08-23T18:31:52.575Z,13.25
2022-08-23T18:36:48.806Z,12.98
2022-08-23T18:39:17.093Z,13.48
2022-08-23T18:42:05.556Z,12.02
2022-08-23T18:44:33.667Z,12.05
2022-08-23T18:47:03.131Z,13.20
2022-08-23T18:49:33.671Z,16.25
2022-08-23T18:52:02.748Z,15.63
2022-08-23T18:54:33.640Z,17.95
2022-08-23T18:57:02.433Z,14.15
2022-08-23T18:59:30.565Z,13.43
2022-08-23T19:01:58.512Z,18.55
2022-08-23T19:04:26.956Z,15.48
2022-08-23T19:11:50.301Z,13.57
2022-08-23T19:14:19.445Z,15.55
2022-08-23T19:16:48.436Z,13.73
2022-08-23T19:19:18.886Z,14.68
2022-08-23T19:21:46.800Z,13.07
2022-08-23T19:24:14.927Z,15.82
2022-08-23T19:26:47.518Z,13.75
2022-08-23T19:29:16.482Z,13.93
2022-08-23T19:31:48.048Z,13.23
2022-08-23T19:34:18.394Z,13.13
2022-08-23T19:36:56.778Z,15.07
2022-08-23T19:39:29.615Z,14.05
2022-08-23T19:41:57.912Z,13.15
2022-08-23T19:44:25.910Z,14.30
2022-08-23T19:46:55.719Z,14.55
2022-08-23T19:49:23.552Z,11.80
2022-08-23T19:59:21.360Z,12.57
2022-08-23T20:01:50.133Z,16.50
2022-08-23T20:04:19.416Z,14.45
2022-08-23T20:06:48.811Z,13.52
2022-08-23T20:09:17.607Z,17.13
2022-08-23T20:11:45.741Z,13.45
2022-08-23T20:14:13.388Z,14.32
2022-08-23T20:16:42.564Z,18.13
2022-08-23T20:19:11.105Z,14.75
2022-08-23T20:21:40.453Z,15.45
2022-08-23T20:24:10.283Z,15.35
2022-08-23T20:26:41.431Z,12.63
2022-08-23T20:29:20.335Z,20.42
2022-08-23T20:31:51.946Z,17.50
2022-08-23T20:34:20.535Z,19.35
2022-08-23T20:36:52.821Z,14.52
2022-08-23T20:39:24.008Z,14.90
2022-08-23T20:41:53.680Z,12.10
2022-08-23T20:44:23.843Z,17.80
2022-08-23T20:46:54.863Z,18.95
2022-08-23T20:49:25.801Z,13.90
2022-08-23T20:51:53.491Z,13.15
2022-08-23T20:54:22.138Z,12.98
2022-08-23T20:59:20.531Z,13.63
2022-08-23T21:01:49.246Z,17.63
2022-08-23T21:04:17.332Z,11.57
2022-08-23T21:06:51.536Z,13.73
2022-08-23T21:09:27.723Z,17.02
2022-08-23T21:11:57.661Z,14.80
2022-08-23T21:16:53.725Z,18.55
2022-08-23T21:19:21.430Z,13.48
2022-08-23T21:21:49.344Z,13.45
2022-08-23T21:26:44.601Z,16.98
2022-08-23T21:29:12.362Z,15.15
2022-08-23T21:31:40.187Z,18.25
2022-08-23T21:34:08.665Z,18.30
2022-08-23T21:36:36.802Z,17.25
2022-08-23T21:39:05.495Z,21.30
2022-08-23T21:41:36.026Z,19.58
2022-08-23T21:44:07.265Z,22.63
2022-08-23T21:46:35.951Z,23.33
2022-08-23T21:49:05.035Z,18.17
2022-08-23T21:51:34.971Z,19.52
2022-08-23T21:54:03.371Z,22.38
2022-08-23T21:56:31.258Z,21.00
2022-08-23T21:59:01.347Z,18.05
2022-08-23T22:01:31.268Z,22.63
2022-08-23T22:03:59.901Z,21.55
2022-08-23T22:06:27.480Z,22.83
2022-08-23T22:08:55.834Z,24.13
2022-08-23T22:11:24.163Z,27.20
2022-08-23T22:13:54.034Z,24.60
2022-08-23T22:16:23.115Z,23.63
2022-08-23T22:18:50.977Z,29.67
2022-08-23T22:21:18.806Z,24.27
2022-08-23T22:23:46.578Z,26.02
2022-08-23T22:28:44.864Z,21.35
2022-08-23T22:31:14.610Z,29.60
2022-08-23T22:33:43.127Z,18.70
2022-08-23T22:36:17.588Z,20.08
2022-08-23T22:38:47.467Z,18.98
2022-08-23T22:41:17.634Z,21.83
2022-08-23T22:43:45.866Z,18.40
2022-08-23T22:46:13.988Z,17.83
2022-08-23T22:48:42.374Z,15.07
2022-08-23T22:51:18.543Z,18.52
2022-08-23T22:53:49.715Z,17.40
2022-08-23T22:56:24.377Z,17.58
2022-08-23T22:58:56.391Z,16.17
2022-08-23T23:01:30.325Z,19.17
2022-08-23T23:04:00.377Z,11.57
2022-08-23T23:06:30.052Z,18.05
2022-08-23T23:08:57.971Z,15.23
2022-08-23T23:11:26.435Z,13.63
2022-08-23T23:13:54.431Z,13.68
2022-08-23T23:16:24.998Z,15.75
2022-08-23T23:19:12.244Z,14.07
2022-08-23T23:21:42.882Z,15.75
2022-08-23T23:24:12.974Z,18.48
2022-08-23T23:26:41.129Z,16.75
2022-08-23T23:29:08.852Z,16.63
2022-08-23T23:31:37.496Z,16.17
2022-08-23T23:34:05.358Z,16.75
2022-08-23T23:36:33.355Z,12.77
2022-08-23T23:39:03.117Z,16.85
2022-08-23T23:41:31.269Z,16.33
2022-08-23T23:43:59.173Z,13.95
2022-08-23T23:48:55.190Z,16.58
2022-08-23T23:51:29.224Z,13.25
2022-08-23T23:53:59.463Z,13.55
2022-08-23T23:56:30.743Z,13.07
2022-08-23T23:58:59.564Z,14.75
